createdAt,value
2018-07-25T00:01:31.033Z,68.79
2018-07-25T00:03:59.761Z,69.86
2018-07-25T00:06:28.473Z,70.18
2018-07-25T00:08:57.175Z,69.66
2018-07-25T00:11:25.880Z,69.16
2018-07-25T00:13:54.610Z,69.23
2018-07-25T00:16:23.356Z,69.85
2018-07-25T00:18:52.049Z,69.73
2018-07-25T00:21:20.817Z,69.27
2018-07-25T00:23:49.469Z,69.43
2018-07-25T00:26:18.220Z,69.78
2018-07-25T00:28:46.942Z,69.63
2018-07-25T00:31:15.654Z,69.86
2018-07-25T00:33:44.460Z,69.63
2018-07-25T00:36:13.231Z,70.35
2018-07-25T00:38:41.981Z,70.51
2018-07-25T00:41:10.715Z,70.02
2018-07-25T00:43:39.503Z,70.40
2018-07-25T00:46:08.198Z,70.85
2018-07-25T00:48:36.878Z,71.08
2018-07-25T00:51:05.564Z,71.35
2018-07-25T00:53:34.289Z,71.12
2018-07-25T00:56:03.151Z,71.18
2018-07-25T00:58:31.865Z,71.24
2018-07-25T01:01:00.640Z,71.96
2018-07-25T01:03:29.373Z,72.29
2018-07-25T01:05:58.094Z,72.00
2018-07-25T01:08:26.777Z,71.74
2018-07-25T01:10:55.467Z,71.69
2018-07-25T01:13:24.273Z,71.33
2018-07-25T01:15:52.936Z,71.82
2018-07-25T01:18:21.724Z,71.73
2018-07-25T01:20:50.424Z,71.69
2018-07-25T01:23:19.197Z,71.05
2018-07-25T01:25:47.940Z,71.06
2018-07-25T01:28:16.642Z,71.56
2018-07-25T01:30:45.360Z,73.03
2018-07-25T01:33:14.043Z,73.36
2018-07-25T01:35:42.852Z,73.23
2018-07-25T01:38:11.537Z,72.94
2018-07-25T01:40:40.217Z,72.21
2018-07-25T01:43:08.944Z,71.80
2018-07-25T01:45:37.696Z,72.89
2018-07-25T01:48:06.414Z,73.18
2018-07-25T01:50:35.125Z,73.91
2018-07-25T01:53:03.873Z,74.10
2018-07-25T01:55:32.624Z,74.11
2018-07-25T01:58:01.310Z,74.01
2018-07-25T02:00:30.028Z,73.67
2018-07-25T02:02:58.731Z,72.89
2018-07-25T02:05:27.391Z,72.95
2018-07-25T02:07:56.040Z,73.39
2018-07-25T02:10:24.801Z,73.52
2018-07-25T02:12:53.453Z,73.18
2018-07-25T02:15:22.216Z,72.79
2018-07-25T02:17:50.926Z,72.87
2018-07-25T02:20:19.740Z,73.38
2018-07-25T02:22:48.465Z,72.36
2018-07-25T02:25:18.095Z,71.68
2018-07-25T02:27:46.803Z,72.42
2018-07-25T02:30:15.561Z,73.57
2018-07-25T02:32:44.306Z,73.72
2018-07-25T02:35:13.046Z,73.45
2018-07-25T02:37:41.768Z,73.54
2018-07-25T02:40:10.494Z,73.32
2018-07-25T02:42:39.226Z,72.98
2018-07-25T02:45:08.028Z,74.12
2018-07-25T02:47:36.792Z,74.04
2018-07-25T02:50:05.643Z,73.78
2018-07-25T02:52:34.360Z,73.62
2018-07-25T02:55:03.180Z,73.47
2018-07-25T02:57:31.911Z,73.15
2018-07-25T03:00:00.591Z,72.72
2018-07-25T03:02:29.371Z,72.14
2018-07-25T03:04:58.003Z,71.25
2018-07-25T03:07:26.756Z,70.80
2018-07-25T03:09:55.482Z,70.66
2018-07-25T03:12:24.234Z,70.53
2018-07-25T03:14:52.970Z,71.27
2018-07-25T03:17:21.725Z,71.55
2018-07-25T03:19:50.451Z,71.10
2018-07-25T03:22:19.228Z,71.39
2018-07-25T03:24:47.963Z,71.49
2018-07-25T03:27:16.664Z,71.37
2018-07-25T03:29:45.411Z,71.85
2018-07-25T03:32:14.078Z,71.91
2018-07-25T03:34:42.803Z,72.36
2018-07-25T03:37:11.526Z,72.93
2018-07-25T03:39:40.175Z,73.30
2018-07-25T03:42:09.067Z,73.84
2018-07-25T03:44:37.777Z,73.81
2018-07-25T03:47:06.950Z,73.65
2018-07-25T03:49:35.680Z,73.44
2018-07-25T03:52:04.369Z,73.93
2018-07-25T03:54:33.858Z,74.08
2018-07-25T03:57:02.619Z,73.68
2018-07-25T03:59:31.524Z,73.53
2018-07-25T04:02:00.271Z,73.25
2018-07-25T04:04:29.043Z,73.72
2018-07-25T04:06:57.758Z,73.59
2018-07-25T04:09:26.503Z,73.59
2018-07-25T04:11:55.209Z,73.65
2018-07-25T04:14:23.892Z,73.94
2018-07-25T04:16:52.608Z,74.27
2018-07-25T04:19:21.315Z,73.58
2018-07-25T04:21:50.084Z,73.56
2018-07-25T04:24:18.762Z,73.74
2018-07-25T04:26:47.475Z,73.56
2018-07-25T04:29:16.142Z,73.15
2018-07-25T04:31:44.823Z,72.66
2018-07-25T04:34:13.473Z,72.38
2018-07-25T04:36:42.221Z,72.45
2018-07-25T04:39:12.083Z,72.67
2018-07-25T04:41:41.077Z,72.53
2018-07-25T04:44:10.409Z,72.45
2018-07-25T04:46:39.200Z,72.13
2018-07-25T04:49:07.876Z,71.43
2018-07-25T04:51:36.619Z,69.66
2018-07-25T04:54:05.349Z,69.26
2018-07-25T04:56:34.124Z,69.90
2018-07-25T04:59:02.803Z,69.86
2018-07-25T05:01:31.533Z,69.92
2018-07-25T05:04:00.195Z,69.85
2018-07-25T05:06:28.914Z,69.55
2018-07-25T05:08:57.668Z,69.59
2018-07-25T05:11:26.357Z,69.38
2018-07-25T05:13:55.035Z,69.27
2018-07-25T05:16:23.814Z,69.03
2018-07-25T05:18:52.533Z,68.81
2018-07-25T05:21:21.319Z,68.58
2018-07-25T05:23:50.031Z,68.52
2018-07-25T05:26:18.704Z,69.26
2018-07-25T05:28:47.350Z,70.04
2018-07-25T05:31:16.148Z,69.27
2018-07-25T05:33:44.956Z,69.22
2018-07-25T05:36:13.758Z,68.98
2018-07-25T05:38:42.461Z,68.73
2018-07-25T05:41:11.353Z,67.96
2018-07-25T05:43:40.061Z,68.18
2018-07-25T05:46:08.999Z,68.12
2018-07-25T05:48:37.844Z,68.21
2018-07-25T05:51:06.710Z,68.23
2018-07-25T05:53:35.592Z,67.87
2018-07-25T05:56:04.333Z,67.51
2018-07-25T05:58:32.991Z,67.32
2018-07-25T06:01:01.962Z,67.24
2018-07-25T06:03:30.751Z,66.96
2018-07-25T06:05:59.373Z,67.02
2018-07-25T06:08:28.039Z,67.54
2018-07-25T06:10:56.750Z,67.04
2018-07-25T06:13:25.469Z,67.28
2018-07-25T06:15:54.191Z,66.99
2018-07-25T06:18:22.907Z,66.54
2018-07-25T06:20:51.615Z,65.72
2018-07-25T06:23:20.387Z,66.00
2018-07-25T06:25:49.230Z,65.08
2018-07-25T06:28:17.999Z,65.22
2018-07-25T06:30:46.802Z,65.09
2018-07-25T06:33:15.552Z,65.51
2018-07-25T06:35:44.378Z,65.26
2018-07-25T06:38:13.085Z,64.12
2018-07-25T06:40:41.804Z,64.13
2018-07-25T06:43:10.534Z,62.37
2018-07-25T06:45:39.373Z,60.14
2018-07-25T06:48:08.030Z,60.06
2018-07-25T06:50:36.948Z,59.59
2018-07-25T06:53:05.627Z,59.55
2018-07-25T06:55:34.476Z,60.25
2018-07-25T06:58:03.212Z,58.37
2018-07-25T07:00:31.898Z,56.59
2018-07-25T07:03:00.574Z,56.63
2018-07-25T07:05:29.291Z,55.89
2018-07-25T07:07:58.066Z,54.34
2018-07-25T07:10:26.800Z,54.19
2018-07-25T07:12:55.601Z,53.22
2018-07-25T07:15:24.356Z,51.55
2018-07-25T07:17:53.051Z,51.82
2018-07-25T07:20:21.697Z,50.96
2018-07-25T07:22:50.453Z,51.04
2018-07-25T07:25:19.171Z,49.68
2018-07-25T07:27:47.845Z,48.90
2018-07-25T07:30:16.605Z,48.33
2018-07-25T07:32:45.786Z,47.62
2018-07-25T07:35:14.540Z,46.91
2018-07-25T07:37:43.239Z,46.26
2018-07-25T07:40:11.996Z,46.59
2018-07-25T07:42:40.699Z,46.85
2018-07-25T07:45:09.875Z,46.09
2018-07-25T07:47:38.743Z,45.17
2018-07-25T07:50:07.410Z,44.99
2018-07-25T07:52:37.136Z,44.66
2018-07-25T07:55:06.259Z,44.24
2018-07-25T07:57:34.948Z,44.27
2018-07-25T08:00:03.900Z,44.36
2018-07-25T08:02:32.629Z,43.97
2018-07-25T08:05:01.562Z,44.67
2018-07-25T08:07:30.571Z,44.37
2018-07-25T08:09:59.881Z,43.57
2018-07-25T08:12:28.770Z,43.56
2018-07-25T08:14:57.663Z,42.89
2018-07-25T08:17:26.412Z,42.03
2018-07-25T08:19:55.118Z,41.71
2018-07-25T08:22:23.921Z,41.68
2018-07-25T08:24:52.610Z,41.82
2018-07-25T08:27:21.344Z,41.37
2018-07-25T08:29:50.088Z,41.05
2018-07-25T08:32:19.336Z,40.62
2018-07-25T08:34:48.129Z,40.47
2018-07-25T08:37:16.901Z,39.50
2018-07-25T08:39:45.800Z,39.54
2018-07-25T08:42:14.512Z,39.96
2018-07-25T08:44:43.300Z,39.03
2018-07-25T08:47:12.113Z,39.46
2018-07-25T08:49:42.007Z,38.55
2018-07-25T08:52:10.752Z,38.46
2018-07-25T08:54:39.619Z,38.57
2018-07-25T08:57:08.475Z,38.29
2018-07-25T08:59:37.359Z,37.80
2018-07-25T09:02:06.158Z,37.19
2018-07-25T09:04:35.085Z,37.19
2018-07-25T09:07:03.918Z,36.07
2018-07-25T09:09:33.568Z,36.15
2018-07-25T09:12:02.397Z,36.19
2018-07-25T09:14:31.530Z,37.21
2018-07-25T09:17:00.537Z,34.78
2018-07-25T09:19:29.480Z,36.37
2018-07-25T09:21:58.343Z,35.99
2018-07-25T09:24:28.643Z,35.87
2018-07-25T09:26:58.913Z,35.60
2018-07-25T09:29:27.780Z,35.61
2018-07-25T09:31:56.549Z,35.10
2018-07-25T09:34:25.392Z,35.64
2018-07-25T09:36:54.086Z,35.00
2018-07-25T09:39:22.934Z,34.67
2018-07-25T09:41:51.603Z,34.97
2018-07-25T09:44:20.401Z,34.76
2018-07-25T09:46:49.240Z,34.80
2018-07-25T09:49:18.187Z,34.65
2018-07-25T09:51:47.488Z,34.59
2018-07-25T09:54:16.660Z,34.20
2018-07-25T09:56:45.534Z,33.63
2018-07-25T09:59:14.529Z,34.23
2018-07-25T10:01:43.290Z,34.02
2018-07-25T10:04:12.000Z,33.91
2018-07-25T10:06:40.796Z,34.54
2018-07-25T10:09:11.010Z,34.62
2018-07-25T10:11:39.849Z,33.95
2018-07-25T10:14:08.751Z,34.32
2018-07-25T10:16:37.489Z,34.81
2018-07-25T10:19:06.199Z,34.36
2018-07-25T10:21:35.241Z,34.51
2018-07-25T10:24:04.151Z,33.66
2018-07-25T10:26:32.894Z,33.85
2018-07-25T10:29:01.666Z,34.37
2018-07-25T10:31:30.395Z,33.87
2018-07-25T10:33:59.352Z,33.53
2018-07-25T10:36:27.992Z,33.71
2018-07-25T10:38:56.700Z,32.73
2018-07-25T10:41:25.376Z,32.77
2018-07-25T10:43:54.074Z,33.30
2018-07-25T10:46:22.927Z,32.29
2018-07-25T10:48:51.700Z,34.18
2018-07-25T10:51:20.628Z,36.21
2018-07-25T10:53:49.289Z,33.11
2018-07-25T10:56:17.966Z,34.02
2018-07-25T10:58:47.675Z,33.22
2018-07-25T11:01:16.497Z,34.16
2018-07-25T11:03:45.302Z,32.52
2018-07-25T11:06:14.055Z,33.33
2018-07-25T11:08:42.760Z,32.45
2018-07-25T11:11:11.456Z,32.91
2018-07-25T11:13:40.183Z,33.45
2018-07-25T11:16:08.924Z,33.44
2018-07-25T11:18:37.592Z,33.20
2018-07-25T11:21:07.016Z,33.11
2018-07-25T11:23:35.797Z,33.56
2018-07-25T11:26:04.882Z,33.72
2018-07-25T11:28:33.719Z,33.74
2018-07-25T11:31:02.476Z,32.59
2018-07-25T11:33:31.149Z,33.13
2018-07-25T11:35:59.841Z,33.94
2018-07-25T11:38:28.513Z,33.18
2018-07-25T11:40:57.245Z,33.01
2018-07-25T11:43:25.927Z,33.39
2018-07-25T11:45:55.025Z,33.80
2018-07-25T11:48:23.828Z,33.52
2018-07-25T11:50:52.555Z,33.83
2018-07-25T11:53:21.240Z,32.59
2018-07-25T11:55:50.207Z,33.51
2018-07-25T11:58:19.034Z,33.53
2018-07-25T12:00:47.683Z,33.62
2018-07-25T12:03:16.422Z,34.30
2018-07-25T12:05:45.285Z,33.37
2018-07-25T12:08:13.933Z,33.30
2018-07-25T12:10:42.717Z,32.95
2018-07-25T12:13:11.451Z,33.28
2018-07-25T12:15:40.733Z,32.52
2018-07-25T12:18:09.452Z,33.30
2018-07-25T12:20:38.452Z,32.94
2018-07-25T12:23:07.404Z,32.72
2018-07-25T12:25:37.025Z,32.78
2018-07-25T12:28:05.883Z,32.62
2018-07-25T12:30:34.618Z,33.00
2018-07-25T12:33:03.448Z,32.91
2018-07-25T12:35:32.137Z,33.63
2018-07-25T12:38:00.877Z,33.01
2018-07-25T12:40:29.591Z,33.35
2018-07-25T12:42:58.307Z,33.16
2018-07-25T12:45:27.240Z,32.67
2018-07-25T12:47:56.183Z,33.01
2018-07-25T12:50:24.885Z,32.06
2018-07-25T12:52:53.764Z,32.00
2018-07-25T12:55:22.430Z,32.91
2018-07-25T12:57:51.242Z,33.49
2018-07-25T13:00:19.902Z,33.65
2018-07-25T13:02:48.639Z,34.01
2018-07-25T13:05:17.396Z,33.43
2018-07-25T13:07:46.160Z,33.47
2018-07-25T13:10:14.944Z,33.32
2018-07-25T13:12:44.001Z,33.81
2018-07-25T13:15:12.734Z,34.04
2018-07-25T13:17:41.460Z,33.91
2018-07-25T13:20:10.435Z,34.19
2018-07-25T13:22:39.174Z,33.81
2018-07-25T13:25:08.562Z,34.71
2018-07-25T13:27:37.279Z,35.21
2018-07-25T13:30:06.335Z,35.51
2018-07-25T13:32:35.068Z,35.69
2018-07-25T13:35:03.921Z,35.29
2018-07-25T13:37:32.665Z,35.63
2018-07-25T13:40:01.436Z,35.96
2018-07-25T13:42:30.122Z,36.37
2018-07-25T13:44:58.788Z,36.25
2018-07-25T13:47:27.549Z,36.15
2018-07-25T13:49:56.385Z,36.86
2018-07-25T13:52:25.105Z,36.24
2018-07-25T13:54:54.136Z,36.61
2018-07-25T13:57:23.256Z,37.20
2018-07-25T13:59:52.206Z,36.86
2018-07-25T14:02:20.956Z,36.97
2018-07-25T14:04:49.690Z,36.58
2018-07-25T14:07:18.392Z,37.50
2018-07-25T14:09:47.120Z,36.81
2018-07-25T14:12:15.840Z,37.05
2018-07-25T14:14:44.573Z,37.68
2018-07-25T14:17:13.264Z,37.42
2018-07-25T14:19:41.982Z,37.53
2018-07-25T14:22:10.692Z,37.71
2018-07-25T14:24:39.588Z,37.54
2018-07-25T14:27:08.397Z,37.45
2018-07-25T14:29:37.155Z,37.96
2018-07-25T14:32:06.147Z,37.70
2018-07-25T14:34:34.962Z,38.47
2018-07-25T14:37:03.824Z,38.15
2018-07-25T14:39:32.542Z,38.13
2018-07-25T14:42:01.261Z,38.14
2018-07-25T14:44:29.965Z,38.19
2018-07-25T14:46:59.849Z,38.75
2018-07-25T14:49:28.505Z,38.96
2018-07-25T14:51:57.378Z,38.49
2018-07-25T14:54:26.168Z,38.74
2018-07-25T14:56:55.184Z,38.83
2018-07-25T14:59:23.833Z,38.66
2018-07-25T15:01:52.631Z,39.60
2018-07-25T15:04:21.373Z,40.13
2018-07-25T15:06:50.260Z,40.22
2018-07-25T15:09:19.262Z,40.70
2018-07-25T15:11:48.595Z,40.18
2018-07-25T15:14:17.380Z,40.19
2018-07-25T15:16:46.128Z,40.09
2018-07-25T15:19:14.812Z,40.27
2018-07-25T15:21:43.933Z,40.59
2018-07-25T15:24:12.800Z,40.77
2018-07-25T15:26:41.605Z,40.76
2018-07-25T15:29:10.495Z,40.60
2018-07-25T15:31:39.229Z,40.88
2018-07-25T15:34:08.075Z,41.46
2018-07-25T15:36:46.444Z,41.41
2018-07-25T15:39:19.412Z,41.37
2018-07-25T15:41:49.110Z,41.50
2018-07-25T15:44:18.995Z,41.60
2018-07-25T15:46:48.487Z,41.86
2018-07-25T15:49:18.410Z,42.02
2018-07-25T15:51:47.209Z,42.44
2018-07-25T15:54:16.641Z,42.18
2018-07-25T15:56:45.343Z,42.26
2018-07-25T15:59:14.571Z,42.62
2018-07-25T16:01:43.422Z,42.85
2018-07-25T16:04:12.060Z,42.66
2018-07-25T16:06:40.761Z,43.21
2018-07-25T16:09:10.521Z,43.36
2018-07-25T16:11:39.759Z,43.64
2018-07-25T16:14:08.592Z,44.40
2018-07-25T16:16:37.340Z,44.14
2018-07-25T16:19:06.480Z,44.31
2018-07-25T16:21:35.266Z,44.59
2018-07-25T16:24:04.081Z,44.50
2018-07-25T16:26:32.833Z,45.01
2018-07-25T16:29:03.358Z,44.91
2018-07-25T16:31:32.121Z,45.34
2018-07-25T16:34:00.791Z,44.75
2018-07-25T16:36:29.563Z,44.82
2018-07-25T16:38:58.220Z,44.85
2018-07-25T16:41:26.902Z,45.26
2018-07-25T16:43:55.784Z,46.40
2018-07-25T16:46:24.464Z,46.80
2018-07-25T16:48:53.256Z,46.50
2018-07-25T16:51:22.350Z,46.69
2018-07-25T16:53:51.073Z,46.42
2018-07-25T16:56:19.826Z,46.84
2018-07-25T16:58:48.554Z,46.15
2018-07-25T17:01:17.290Z,46.20
2018-07-25T17:03:46.027Z,46.76
2018-07-25T17:06:14.738Z,46.50
2018-07-25T17:08:43.430Z,46.88
2018-07-25T17:11:12.209Z,46.74
2018-07-25T17:13:40.937Z,46.70
2018-07-25T17:16:09.845Z,46.58
2018-07-25T17:18:38.588Z,46.51
2018-07-25T17:21:08.375Z,46.83
2018-07-25T17:23:37.097Z,46.87
2018-07-25T17:26:06.328Z,47.17
2018-07-25T17:28:35.591Z,47.20
2018-07-25T17:31:04.393Z,47.57
2018-07-25T17:33:33.103Z,47.94
2018-07-25T17:36:02.158Z,48.52
2018-07-25T17:38:30.909Z,48.23
2018-07-25T17:40:59.752Z,48.67
2018-07-25T17:43:28.402Z,48.58
2018-07-25T17:45:57.108Z,48.75
2018-07-25T17:48:25.897Z,48.98
2018-07-25T17:50:54.741Z,48.86
2018-07-25T17:53:23.617Z,49.03
2018-07-25T17:55:52.383Z,49.42
2018-07-25T17:58:21.210Z,49.56
2018-07-25T18:00:49.941Z,49.59
2018-07-25T18:03:18.710Z,49.88
2018-07-25T18:05:47.522Z,51.07
2018-07-25T18:08:16.241Z,51.09
2018-07-25T18:10:45.077Z,51.55
2018-07-25T18:13:19.098Z,51.63
2018-07-25T18:15:47.905Z,51.51
2018-07-25T18:18:16.641Z,51.99
2018-07-25T18:20:45.331Z,51.75
2018-07-25T18:23:14.024Z,52.49
2018-07-25T18:25:42.720Z,52.38
2018-07-25T18:28:11.639Z,52.35
2018-07-25T18:30:40.723Z,52.79
2018-07-25T18:33:09.442Z,53.31
2018-07-25T18:35:38.343Z,53.39
2018-07-25T18:38:07.085Z,53.36
2018-07-25T18:40:35.811Z,53.39
2018-07-25T18:43:04.560Z,53.33
2018-07-25T18:45:33.422Z,53.25
2018-07-25T18:48:02.277Z,53.70
2018-07-25T18:50:31.068Z,54.09
2018-07-25T18:53:00.395Z,55.98
2018-07-25T18:55:29.138Z,55.90
2018-07-25T18:57:57.889Z,55.69
2018-07-25T19:00:26.925Z,55.28
2018-07-25T19:02:55.692Z,55.20
2018-07-25T19:05:30.870Z,54.93
2018-07-25T19:08:00.925Z,54.86
2018-07-25T19:10:29.925Z,54.96
2018-07-25T19:12:59.831Z,54.97
2018-07-25T19:15:31.592Z,55.32
2018-07-25T19:18:00.979Z,55.51
2018-07-25T19:20:29.834Z,55.89
2018-07-25T19:22:58.660Z,56.35
2018-07-25T19:25:27.447Z,56.17
2018-07-25T19:27:56.180Z,56.14
2018-07-25T19:30:24.945Z,56.18
2018-07-25T19:32:53.804Z,57.00
2018-07-25T19:35:22.514Z,56.92
2018-07-25T19:37:51.279Z,57.21
2018-07-25T19:40:20.021Z,57.24
2018-07-25T19:42:48.769Z,57.52
2018-07-25T19:45:17.537Z,57.43
2018-07-25T19:47:46.227Z,57.24
2018-07-25T19:50:14.983Z,56.87
2018-07-25T19:52:43.823Z,56.98
2018-07-25T19:55:12.593Z,56.98
2018-07-25T19:57:41.279Z,57.15
2018-07-25T20:00:16.379Z,57.20
2018-07-25T20:02:39.182Z,56.96
2018-07-25T20:05:08.127Z,57.07
2018-07-25T20:07:36.913Z,57.73
2018-07-25T20:10:05.832Z,58.08
2018-07-25T20:12:34.573Z,57.92
2018-07-25T20:15:08.529Z,57.95
2018-07-25T20:17:37.313Z,57.92
2018-07-25T20:20:06.063Z,57.51
2018-07-25T20:22:34.812Z,57.92
2018-07-25T20:25:03.641Z,57.89
2018-07-25T20:27:32.340Z,57.48
2018-07-25T20:30:01.073Z,58.05
2018-07-25T20:32:29.799Z,59.14
2018-07-25T20:34:58.557Z,58.87
2018-07-25T20:37:27.346Z,58.43
2018-07-25T20:39:56.058Z,58.39
2018-07-25T20:42:24.941Z,58.35
2018-07-25T20:44:53.679Z,58.13
2018-07-25T20:47:23.224Z,58.47
2018-07-25T20:49:51.892Z,58.30
2018-07-25T20:52:20.602Z,58.30
2018-07-25T20:54:49.283Z,58.44
2018-07-25T20:57:18.018Z,59.32
2018-07-25T20:59:46.817Z,59.86
2018-07-25T21:02:15.554Z,61.21
2018-07-25T21:04:44.414Z,61.26
2018-07-25T21:07:13.232Z,61.26
2018-07-25T21:09:41.974Z,61.07
2018-07-25T21:12:10.812Z,61.96
2018-07-25T21:14:39.496Z,61.30
2018-07-25T21:17:08.256Z,61.15
2018-07-25T21:19:37.081Z,61.41
2018-07-25T21:22:06.186Z,61.18
2018-07-25T21:24:34.899Z,61.00
2018-07-25T21:27:03.659Z,61.03
2018-07-25T21:29:32.386Z,61.10
2018-07-25T21:32:01.287Z,61.26
2018-07-25T21:34:30.004Z,61.09
2018-07-25T21:36:58.840Z,61.20
2018-07-25T21:39:27.689Z,62.15
2018-07-25T21:41:56.810Z,63.33
2018-07-25T21:44:25.780Z,63.12
2018-07-25T21:46:55.127Z,63.40
2018-07-25T21:49:26.064Z,63.48
2018-07-25T21:51:54.910Z,63.23
2018-07-25T21:54:23.701Z,63.42
2018-07-25T21:56:52.595Z,63.39
2018-07-25T21:59:21.420Z,63.82
2018-07-25T22:01:50.441Z,64.07
2018-07-25T22:04:19.330Z,64.41
2018-07-25T22:06:48.333Z,64.55
2018-07-25T22:09:17.364Z,64.27
2018-07-25T22:11:46.182Z,63.95
2018-07-25T22:14:22.248Z,64.26
2018-07-25T22:16:51.381Z,64.17
2018-07-25T22:19:20.229Z,64.30
2018-07-25T22:21:49.020Z,63.81
2018-07-25T22:24:18.173Z,64.19
2018-07-25T22:26:47.078Z,64.34
2018-07-25T22:29:17.864Z,64.16
2018-07-25T22:31:48.093Z,64.16
2018-07-25T22:34:17.007Z,63.94
2018-07-25T22:36:46.178Z,63.97
2018-07-25T22:39:14.871Z,63.97
2018-07-25T22:41:43.931Z,64.44
2018-07-25T22:44:12.882Z,65.11
2018-07-25T22:46:41.658Z,65.90
2018-07-25T22:49:10.704Z,66.32
2018-07-25T22:51:39.755Z,66.54
2018-07-25T22:54:09.048Z,66.35
2018-07-25T22:56:38.194Z,65.74
2018-07-25T22:59:07.392Z,65.54
2018-07-25T23:01:36.596Z,64.96
2018-07-25T23:04:06.084Z,65.30
2018-07-25T23:06:35.560Z,65.54
2018-07-25T23:09:07.654Z,65.15
2018-07-25T23:11:36.984Z,65.21
2018-07-25T23:14:09.471Z,65.21
2018-07-25T23:16:38.545Z,64.45
2018-07-25T23:19:07.959Z,65.05
2018-07-25T23:21:37.406Z,65.83
2018-07-25T23:24:06.221Z,65.24
2018-07-25T23:26:36.279Z,65.80
2018-07-25T23:29:04.998Z,66.17
2018-07-25T23:31:33.848Z,65.88
2018-07-25T23:34:02.640Z,65.20
2018-07-25T23:36:31.368Z,64.64
2018-07-25T23:39:00.183Z,65.18
2018-07-25T23:41:28.928Z,64.86
2018-07-25T23:43:57.764Z,64.91
2018-07-25T23:46:26.452Z,64.94
2018-07-25T23:48:55.201Z,64.52
2018-07-25T23:51:24.028Z,64.57
2018-07-25T23:53:52.880Z,63.74
2018-07-25T23:56:21.675Z,64.37
2018-07-25T23:58:50.389Z,64.77
